createdAt,value
2023-05-13T00:01:27.026Z,96022.63
2023-05-13T00:03:59.703Z,96031.56
2023-05-13T00:06:32.992Z,96032.75
2023-05-13T00:09:05.763Z,96030.09
2023-05-13T00:11:38.613Z,96029.38
2023-05-13T00:14:12.165Z,96040.97
2023-05-13T00:16:46.531Z,96037.91
2023-05-13T00:19:19.263Z,96034.88
2023-05-13T00:21:51.851Z,96033.38
2023-05-13T00:24:24.614Z,96036.84
2023-05-13T00:26:57.306Z,96032.25
2023-05-13T00:29:31.512Z,96035.31
2023-05-13T00:32:06.259Z,96030.72
2023-05-13T00:34:39.158Z,96043.47
2023-05-13T00:37:12.184Z,96037.72
2023-05-13T00:39:44.888Z,96029.66
2023-05-13T00:42:17.553Z,96036.59
2023-05-13T00:44:50.266Z,96030.06
2023-05-13T00:47:24.370Z,96035.44
2023-05-13T00:49:57.195Z,96028.91
2023-05-13T00:52:30.229Z,96037.75
2023-05-13T00:55:04.577Z,96032.38
2023-05-13T00:57:37.497Z,96037.41
2023-05-13T01:00:11.564Z,96036.25
2023-05-13T01:02:52.173Z,96030.09
2023-05-13T01:05:32.592Z,96033.94
2023-05-13T01:08:07.936Z,96033.94
2023-05-13T01:10:42.932Z,96033.94
2023-05-13T01:13:18.585Z,96039.31
2023-05-13T01:15:53.413Z,96036.63
2023-05-13T01:18:29.709Z,96036.97
2023-05-13T01:21:02.829Z,96036.19
2023-05-13T01:23:36.963Z,96035.84
2023-05-13T01:26:09.690Z,96036.97
2023-05-13T01:28:42.388Z,96035.06
2023-05-13T01:31:15.364Z,96032.38
2023-05-13T01:33:48.667Z,96031.97
2023-05-13T01:36:21.833Z,96036.59
2023-05-13T01:38:57.313Z,96033.91
2023-05-13T01:41:29.988Z,96036.59
2023-05-13T01:44:02.739Z,96033.47
2023-05-13T01:46:35.510Z,96035.38
2023-05-13T01:49:10.251Z,96038.06
2023-05-13T01:51:43.020Z,96035.75
2023-05-13T01:54:17.178Z,96044.59
2023-05-13T01:56:49.922Z,96038.41
2023-05-13T01:59:22.880Z,96036.84
2023-05-13T02:01:55.837Z,96035.28
2023-05-13T02:04:28.606Z,96042.59
2023-05-13T02:07:01.337Z,96046.41
2023-05-13T02:09:35.622Z,96042.94
2023-05-13T02:12:08.846Z,96046.41
2023-05-13T02:14:41.550Z,96048.34
2023-05-13T02:17:14.236Z,96048.75
2023-05-13T02:19:46.851Z,96051.81
2023-05-13T02:22:19.555Z,96051.03
2023-05-13T02:24:53.759Z,96048.34
2023-05-13T02:27:26.425Z,96037.91
2023-05-13T02:29:59.097Z,96044.84
2023-05-13T02:32:31.870Z,96049.09
2023-05-13T02:35:04.738Z,96046.41
2023-05-13T02:37:37.815Z,96042.94
2023-05-13T02:40:13.008Z,96049.88
2023-05-13T02:42:45.918Z,96042.59
2023-05-13T02:45:18.596Z,96054.13
2023-05-13T02:47:51.631Z,96043.38
2023-05-13T02:50:24.504Z,96047.63
2023-05-13T02:52:57.238Z,96045.69
2023-05-13T02:55:31.340Z,96048.41
2023-05-13T02:58:04.546Z,96049.91
2023-05-13T03:00:37.292Z,96051.88
2023-05-13T03:03:10.106Z,96055.31
2023-05-13T03:05:42.961Z,96060.34
2023-05-13T03:08:16.078Z,96053.41
2023-05-13T03:10:50.358Z,96053.03
2023-05-13T03:13:23.129Z,96057.28
2023-05-13T03:15:55.877Z,96056.16
2023-05-13T03:18:31.777Z,96056.16
2023-05-13T03:21:04.686Z,96052.69
2023-05-13T03:23:37.672Z,96059.97
2023-05-13T03:26:11.871Z,96059.97
2023-05-13T03:28:44.580Z,96053.81
2023-05-13T03:31:17.344Z,96063.03
2023-05-13T03:33:50.080Z,96064.94
2023-05-13T03:36:22.722Z,96070.72
2023-05-13T03:38:55.409Z,96070.72
2023-05-13T03:41:29.583Z,96071.47
2023-05-13T03:44:02.263Z,96069.94
2023-05-13T03:46:35.151Z,96071.84
2023-05-13T03:49:08.150Z,96068.38
2023-05-13T03:51:40.928Z,96069.50
2023-05-13T03:54:13.827Z,96069.16
2023-05-13T03:56:47.964Z,96066.81
2023-05-13T03:59:20.609Z,96069.50
2023-05-13T04:01:53.405Z,96070.28
2023-05-13T04:04:26.281Z,96077.59
2023-05-13T04:06:59.066Z,96073.34
2023-05-13T04:09:31.739Z,96076.81
2023-05-13T04:12:06.170Z,96083.75
2023-05-13T04:14:38.859Z,96084.53
2023-05-13T04:17:11.705Z,96089.13
2023-05-13T04:19:44.686Z,96094.16
2023-05-13T04:22:17.346Z,96096.44
2023-05-13T04:24:52.310Z,96089.91
2023-05-13T04:27:26.786Z,96099.56
2023-05-13T04:29:59.468Z,96096.47
2023-05-13T04:32:32.183Z,96102.28
2023-05-13T04:35:05.166Z,96104.97
2023-05-13T04:37:37.967Z,96103.84
2023-05-13T04:40:11.150Z,96099.22
2023-05-13T04:42:45.305Z,96101.22
2023-05-13T04:45:18.175Z,96100.81
2023-05-13T04:47:50.951Z,96105.84
2023-05-13T04:50:23.675Z,96106.28
2023-05-13T04:52:56.897Z,96114.34
2023-05-13T04:55:29.845Z,96117.47
2023-05-13T04:58:03.899Z,96114.03
2023-05-13T05:00:36.627Z,96111.72
2023-05-13T05:03:09.468Z,96120.59
2023-05-13T05:05:42.205Z,96117.50
2023-05-13T05:08:14.895Z,96119.06
2023-05-13T05:10:47.653Z,96120.63
2023-05-13T05:13:21.864Z,96127.56
2023-05-13T05:15:54.582Z,96131.03
2023-05-13T05:18:27.428Z,96134.16
2023-05-13T05:21:02.422Z,96136.06
2023-05-13T05:23:35.287Z,96135.31
2023-05-13T05:26:11.721Z,96141.13
2023-05-13T05:28:47.043Z,96134.97
2023-05-13T05:31:19.830Z,96145.41
2023-05-13T05:33:52.565Z,96140.00
2023-05-13T05:36:25.180Z,96143.47
2023-05-13T05:38:57.917Z,96140.78
2023-05-13T05:41:30.675Z,96148.44
2023-05-13T05:44:04.962Z,96150.00
2023-05-13T05:46:37.915Z,96150.75
2023-05-13T05:49:10.554Z,96149.97
2023-05-13T05:51:43.233Z,96151.88
2023-05-13T05:54:16.178Z,96146.44
2023-05-13T05:56:48.842Z,96149.53
2023-05-13T05:59:22.874Z,96151.03
2023-05-13T06:01:55.596Z,96153.38
2023-05-13T06:04:28.304Z,96152.16
2023-05-13T06:07:01.057Z,96152.59
2023-05-13T06:09:34.163Z,96149.53
2023-05-13T06:12:07.285Z,96153.00
2023-05-13T06:14:41.440Z,96152.28
2023-05-13T06:17:14.885Z,96150.00
2023-05-13T06:19:47.614Z,96151.97
2023-05-13T06:22:20.301Z,96153.56
2023-05-13T06:24:53.022Z,96155.19
2023-05-13T06:27:25.856Z,96162.97
2023-05-13T06:30:00.180Z,96158.06
2023-05-13T06:32:33.126Z,96158.50
2023-05-13T06:35:06.115Z,96163.25
2023-05-13T06:37:39.096Z,96165.66
2023-05-13T06:40:12.391Z,96154.19
2023-05-13T06:42:45.133Z,96171.28
2023-05-13T06:45:23.251Z,96162.84
2023-05-13T06:47:56.491Z,96169.47
2023-05-13T06:50:29.182Z,96169.53
2023-05-13T06:53:01.959Z,96164.56
2023-05-13T06:55:41.686Z,96167.75
2023-05-13T06:58:14.668Z,96162.38
2023-05-13T07:00:48.872Z,96165.50
2023-05-13T07:03:21.641Z,96159.03
2023-05-13T07:05:54.421Z,96167.94
2023-05-13T07:08:27.179Z,96162.59
2023-05-13T07:10:59.914Z,96164.13
2023-05-13T07:13:34.796Z,96167.63
2023-05-13T07:16:09.140Z,96166.50
2023-05-13T07:18:42.009Z,96164.56
2023-05-13T07:21:14.869Z,96176.16
2023-05-13T07:23:47.909Z,96171.53
2023-05-13T07:26:21.746Z,96172.66
2023-05-13T07:28:54.450Z,96174.22
2023-05-13T07:31:29.063Z,96171.59
2023-05-13T07:34:01.770Z,96171.28
2023-05-13T07:36:34.631Z,96172.91
2023-05-13T07:39:08.667Z,96170.34
2023-05-13T07:41:41.416Z,96167.75
2023-05-13T07:44:15.433Z,96164.38
2023-05-13T07:46:51.641Z,96165.59
2023-05-13T07:49:24.450Z,96160.31
2023-05-13T07:51:57.110Z,96166.56
2023-05-13T07:54:30.071Z,96168.19
2023-05-13T07:57:04.030Z,96173.31
2023-05-13T07:59:36.763Z,96166.09
2023-05-13T08:02:10.931Z,96170.78
2023-05-13T08:04:43.659Z,96182.44
2023-05-13T08:07:16.539Z,96174.38
2023-05-13T08:09:49.146Z,96177.50
2023-05-13T08:12:21.843Z,96177.50
2023-05-13T08:14:54.655Z,96179.09
2023-05-13T08:17:28.829Z,96173.69
2023-05-13T08:20:02.197Z,96186.84
2023-05-13T08:22:34.864Z,96177.97
2023-05-13T08:25:07.730Z,96190.38
2023-05-13T08:27:40.422Z,96175.31
2023-05-13T08:30:13.597Z,96177.25
2023-05-13T08:32:48.553Z,96173.81
2023-05-13T08:35:21.765Z,96182.31
2023-05-13T08:37:54.962Z,96181.56
2023-05-13T08:40:27.666Z,96174.63
2023-05-13T08:43:01.832Z,96180.06
2023-05-13T08:45:34.567Z,96173.47
2023-05-13T08:48:10.348Z,96182.41
2023-05-13T08:50:43.772Z,96180.47
2023-05-13T08:53:18.352Z,96185.91
2023-05-13T08:55:51.265Z,96187.06
2023-05-13T08:58:24.223Z,96196.75
2023-05-13T09:00:57.551Z,96189.78
2023-05-13T09:03:32.816Z,96191.34
2023-05-13T09:06:05.835Z,96197.91
2023-05-13T09:08:38.626Z,96193.25
2023-05-13T09:11:11.409Z,96198.69
2023-05-13T09:13:44.201Z,96195.59
2023-05-13T09:16:17.511Z,96206.44
2023-05-13T09:18:56.767Z,96202.59
2023-05-13T09:21:31.738Z,96200.66
2023-05-13T09:24:10.829Z,96194.88
2023-05-13T09:26:43.936Z,96201.44
2023-05-13T09:29:20.714Z,96195.66
2023-05-13T09:31:54.750Z,96195.66
2023-05-13T09:34:29.657Z,96192.97
2023-05-13T09:37:03.322Z,96185.59
2023-05-13T09:39:40.039Z,96194.13
2023-05-13T09:42:16.539Z,96190.63
2023-05-13T09:44:49.887Z,96196.81
2023-05-13T09:47:25.489Z,96199.13
2023-05-13T09:49:59.596Z,96203.75
2023-05-13T09:52:32.694Z,96204.16
2023-05-13T09:55:06.071Z,96206.47
2023-05-13T09:57:39.823Z,96205.72
2023-05-13T10:00:21.021Z,96208.81
2023-05-13T10:03:02.465Z,96199.94
2023-05-13T10:05:36.629Z,96221.63
2023-05-13T10:08:10.334Z,96218.53
2023-05-13T10:10:43.467Z,96218.09
2023-05-13T10:13:17.628Z,96212.31
2023-05-13T10:15:51.538Z,96220.00
2023-05-13T10:18:25.026Z,96215.72
2023-05-13T10:20:59.241Z,96217.66
2023-05-13T10:23:32.732Z,96221.09
2023-05-13T10:26:07.591Z,96215.63
2023-05-13T10:28:40.903Z,96216.34
2023-05-13T10:31:13.876Z,96216.31
2023-05-13T10:33:46.852Z,96216.66
2023-05-13T10:36:31.647Z,96221.66
2023-05-13T10:39:12.352Z,96220.84
2023-05-13T10:42:11.825Z,96218.13
2023-05-13T10:44:44.637Z,96224.66
2023-05-13T10:47:18.608Z,96226.19
2023-05-13T10:49:52.095Z,96222.69
2023-05-13T10:52:42.637Z,96225.00
2023-05-13T10:55:18.868Z,96219.56
2023-05-13T10:58:10.863Z,96218.78
2023-05-13T11:00:44.146Z,96216.84
2023-05-13T11:03:29.066Z,96210.66
2023-05-13T11:06:05.400Z,96219.16
2023-05-13T11:08:40.185Z,96214.13
2023-05-13T11:11:31.066Z,96214.91
2023-05-13T11:14:08.310Z,96210.28
2023-05-13T11:16:46.522Z,96210.28
2023-05-13T11:19:23.489Z,96212.59
2023-05-13T11:21:57.707Z,96211.84
2023-05-13T11:24:32.143Z,96216.47
2023-05-13T11:27:14.626Z,96214.53
2023-05-13T11:29:51.269Z,96207.16
2023-05-13T11:32:42.868Z,96209.09
2023-05-13T11:35:20.103Z,96211.78
2023-05-13T11:37:52.896Z,96212.97
2023-05-13T11:40:28.200Z,96204.50
2023-05-13T11:43:01.220Z,96204.91
2023-05-13T11:45:34.134Z,96218.06
2023-05-13T11:48:18.984Z,96209.16
2023-05-13T11:50:52.094Z,96204.53
2023-05-13T11:53:24.771Z,96201.44
2023-05-13T11:56:10.668Z,96202.25
2023-05-13T11:58:43.314Z,96201.88
2023-05-13T12:01:16.087Z,96206.59
2023-05-13T12:03:49.048Z,96199.28
2023-05-13T12:06:21.919Z,96199.38
2023-05-13T12:08:54.658Z,96204.09
2023-05-13T12:11:28.981Z,96209.97
2023-05-13T12:14:01.909Z,96216.16
2023-05-13T12:16:34.836Z,96228.59
2023-05-13T12:19:08.074Z,96216.19
2023-05-13T12:21:40.801Z,96222.78
2023-05-13T12:24:20.066Z,96222.00
2023-05-13T12:26:54.903Z,96225.13
2023-05-13T12:29:27.685Z,96226.66
2023-05-13T12:32:04.756Z,96225.88
2023-05-13T12:34:38.991Z,96221.59
2023-05-13T12:37:12.968Z,96218.91
2023-05-13T12:39:45.839Z,96222.41
2023-05-13T12:42:19.982Z,96222.41
2023-05-13T12:44:53.211Z,96225.50
2023-05-13T12:47:26.005Z,96228.59
2023-05-13T12:49:59.467Z,96224.72
2023-05-13T12:52:32.170Z,96223.97
2023-05-13T12:55:05.222Z,96225.50
2023-05-13T12:57:39.320Z,96226.69
2023-05-13T13:00:12.765Z,96228.22
2023-05-13T13:02:45.549Z,96231.31
2023-05-13T13:05:18.388Z,96227.44
2023-05-13T13:07:51.489Z,96225.13
2023-05-13T13:10:24.140Z,96235.59
2023-05-13T13:12:58.423Z,96242.56
2023-05-13T13:15:31.174Z,96220.06
2023-05-13T13:18:04.251Z,96227.81
2023-05-13T13:20:37.692Z,96227.06
2023-05-13T13:23:10.658Z,96226.28
2023-05-13T13:25:43.516Z,96224.72
2023-05-13T13:28:17.604Z,96227.81
2023-05-13T13:30:50.326Z,96223.97
2023-05-13T13:33:23.144Z,96233.25
2023-05-13T13:35:55.951Z,96221.22
2023-05-13T13:38:28.699Z,96212.31
2023-05-13T13:41:01.663Z,96214.25
2023-05-13T13:43:35.765Z,96216.97
2023-05-13T13:46:08.479Z,96212.31
2023-05-13T13:48:41.266Z,96212.31
2023-05-13T13:51:14.042Z,96214.25
2023-05-13T13:53:46.754Z,96211.19
2023-05-13T13:56:20.181Z,96216.59
2023-05-13T13:58:54.305Z,96207.31
2023-05-13T14:01:27.170Z,96223.94
2023-05-13T14:04:11.038Z,96210.03
2023-05-13T14:06:44.046Z,96212.34
2023-05-13T14:09:17.207Z,96205.31
2023-05-13T14:11:49.881Z,96219.28
2023-05-13T14:14:25.150Z,96217.75
2023-05-13T14:16:57.853Z,96215.41
2023-05-13T14:19:30.954Z,96216.16
2023-05-13T14:22:03.674Z,96220.84
2023-05-13T14:24:36.383Z,96219.25
2023-05-13T14:27:09.101Z,96214.22
2023-05-13T14:29:43.272Z,96209.19
2023-05-13T14:32:15.980Z,96215.00
2023-05-13T14:34:48.669Z,96215.34
2023-05-13T14:37:21.484Z,96204.53
2023-05-13T14:39:54.166Z,96210.31
2023-05-13T14:42:26.936Z,96205.28
2023-05-13T14:45:01.188Z,96205.66
2023-05-13T14:47:33.944Z,96213.41
2023-05-13T14:50:07.307Z,96206.44
2023-05-13T14:52:40.051Z,96198.28
2023-05-13T14:55:13.186Z,96195.19
2023-05-13T14:57:45.884Z,96205.66
2023-05-13T15:00:21.550Z,96197.50
2023-05-13T15:02:54.538Z,96191.28
2023-05-13T15:05:27.895Z,96188.59
2023-05-13T15:08:01.034Z,96199.84
2023-05-13T15:10:33.759Z,96193.66
2023-05-13T15:13:06.453Z,96199.09
2023-05-13T15:15:40.649Z,96196.03
2023-05-13T15:18:13.351Z,96194.50
2023-05-13T15:20:46.068Z,96195.25
2023-05-13T15:23:18.819Z,96198.34
2023-05-13T15:25:52.303Z,96191.78
2023-05-13T15:28:25.120Z,96194.88
2023-05-13T15:30:59.171Z,96203.41
2023-05-13T15:33:32.590Z,96201.81
2023-05-13T15:36:05.932Z,96192.94
2023-05-13T15:38:38.731Z,96199.13
2023-05-13T15:41:11.461Z,96192.94
2023-05-13T15:43:44.151Z,96199.09
2023-05-13T15:46:18.569Z,96192.50
2023-05-13T15:48:51.321Z,96197.53
2023-05-13T15:51:24.346Z,96189.78
2023-05-13T15:53:57.040Z,96190.16
2023-05-13T15:56:29.761Z,96189.38
2023-05-13T15:59:02.444Z,96183.19
2023-05-13T16:01:37.763Z,96188.56
2023-05-13T16:04:10.520Z,96190.50
2023-05-13T16:06:43.552Z,96182.34
2023-05-13T16:09:16.242Z,96196.59
2023-05-13T16:11:48.984Z,96195.44
2023-05-13T16:14:21.823Z,96187.66
2023-05-13T16:16:56.082Z,96191.47
2023-05-13T16:19:29.094Z,96194.53
2023-05-13T16:22:21.965Z,96191.72
2023-05-13T16:24:55.066Z,96185.38
2023-05-13T16:27:28.336Z,96183.63
2023-05-13T16:30:01.813Z,96184.63
2023-05-13T16:32:36.437Z,96192.16
2023-05-13T16:35:11.043Z,96193.91
2023-05-13T16:37:44.221Z,96187.56
2023-05-13T16:40:17.413Z,96192.81
2023-05-13T16:42:50.279Z,96189.56
2023-05-13T16:45:23.179Z,96201.41
2023-05-13T16:47:57.778Z,96190.50
2023-05-13T16:50:30.707Z,96190.34
2023-05-13T16:53:03.942Z,96189.88
2023-05-13T16:55:36.859Z,96187.06
2023-05-13T16:58:09.621Z,96190.81
2023-05-13T17:00:42.408Z,96188.78
2023-05-13T17:03:16.983Z,96184.50
2023-05-13T17:05:50.075Z,96191.41
2023-05-13T17:08:24.613Z,96190.88
2023-05-13T17:10:57.298Z,96184.31
2023-05-13T17:13:30.061Z,96188.56
2023-05-13T17:16:02.783Z,96183.91
2023-05-13T17:18:36.955Z,96197.03
2023-05-13T17:21:09.835Z,96198.94
2023-05-13T17:23:42.533Z,96198.56
2023-05-13T17:26:15.279Z,96195.53
2023-05-13T17:28:47.949Z,96193.25
2023-05-13T17:31:21.080Z,96188.28
2023-05-13T17:33:55.604Z,96188.34
2023-05-13T17:36:28.291Z,96195.31
2023-05-13T17:39:00.996Z,96203.88
2023-05-13T17:41:33.785Z,96192.72
2023-05-13T17:44:06.729Z,96198.94
2023-05-13T17:46:39.452Z,96185.13
2023-05-13T17:49:13.698Z,96187.44
2023-05-13T17:51:46.577Z,96187.84
2023-05-13T17:54:19.613Z,96190.19
2023-05-13T17:56:52.266Z,96181.72
2023-05-13T17:59:25.085Z,96193.72
2023-05-13T18:01:57.767Z,96191.78
2023-05-13T18:04:32.252Z,96195.66
2023-05-13T18:07:05.002Z,96189.13
2023-05-13T18:09:37.727Z,96184.94
2023-05-13T18:12:10.774Z,96191.09
2023-05-13T18:14:43.503Z,96189.59
2023-05-13T18:17:16.231Z,96187.28
2023-05-13T18:19:50.519Z,96186.94
2023-05-13T18:22:23.186Z,96194.66
2023-05-13T18:24:56.271Z,96188.13
2023-05-13T18:27:28.926Z,96189.28
2023-05-13T18:30:01.642Z,96195.81
2023-05-13T18:32:34.472Z,96193.09
2023-05-13T18:35:09.845Z,96192.69
2023-05-13T18:37:42.557Z,96195.00
2023-05-13T18:40:15.319Z,96201.53
2023-05-13T18:42:48.033Z,96198.41
2023-05-13T18:45:21.137Z,96201.88
2023-05-13T18:47:55.572Z,96190.69
2023-05-13T18:50:29.760Z,96196.84
2023-05-13T18:53:02.946Z,96202.59
2023-05-13T18:55:36.263Z,96197.22
2023-05-13T18:58:08.979Z,96194.09
2023-05-13T19:00:41.823Z,96194.09
2023-05-13T19:03:14.875Z,96200.25
2023-05-13T19:05:49.112Z,96199.47
2023-05-13T19:08:22.650Z,96206.00
2023-05-13T19:10:55.352Z,96212.88
2023-05-13T19:13:39.432Z,96211.34
2023-05-13T19:16:19.979Z,96209.03
2023-05-13T19:18:52.776Z,96217.13
2023-05-13T19:21:26.986Z,96215.16
2023-05-13T19:23:59.659Z,96215.94
2023-05-13T19:26:32.423Z,96226.72
2023-05-13T19:29:07.062Z,96230.63
2023-05-13T19:31:40.103Z,96228.72
2023-05-13T19:34:14.619Z,96227.56
2023-05-13T19:36:49.094Z,96232.97
2023-05-13T19:39:21.807Z,96231.41
2023-05-13T19:41:54.565Z,96239.06
2023-05-13T19:44:28.600Z,96235.59
2023-05-13T19:47:01.604Z,96238.69
2023-05-13T19:49:34.598Z,96239.41
2023-05-13T19:52:09.355Z,96240.91
2023-05-13T19:54:42.134Z,96240.47
2023-05-13T19:57:14.834Z,96246.59
2023-05-13T19:59:47.970Z,96239.94
2023-05-13T20:02:21.157Z,96236.78
2023-05-13T20:04:53.882Z,96242.84
2023-05-13T20:07:28.103Z,96241.22
2023-05-13T20:10:01.239Z,96237.19
2023-05-13T20:12:34.389Z,96236.31
2023-05-13T20:15:07.709Z,96231.94
2023-05-13T20:17:41.033Z,96239.13
2023-05-13T20:20:14.094Z,96236.69
2023-05-13T20:22:48.254Z,96238.06
2023-05-13T20:25:21.592Z,96243.66
2023-05-13T20:27:54.412Z,96242.00
2023-05-13T20:30:27.112Z,96241.44
2023-05-13T20:32:59.836Z,96242.78
2023-05-13T20:35:32.855Z,96236.84
2023-05-13T20:38:07.040Z,96237.03
2023-05-13T20:40:39.825Z,96236.47
2023-05-13T20:43:12.538Z,96235.56
2023-05-13T20:45:45.314Z,96233.06
2023-05-13T20:48:18.371Z,96241.34
2023-05-13T20:50:51.595Z,96230.78
2023-05-13T20:53:26.079Z,96232.91
2023-05-13T20:55:58.855Z,96238.91
2023-05-13T20:58:31.856Z,96233.72
2023-05-13T21:01:04.674Z,96229.31
2023-05-13T21:03:37.410Z,96231.06
2023-05-13T21:06:10.250Z,96224.75
2023-05-13T21:08:44.562Z,96229.97
2023-05-13T21:11:17.469Z,96230.94
2023-05-13T21:13:50.167Z,96228.41
2023-05-13T21:16:22.896Z,96217.47
2023-05-13T21:18:55.930Z,96216.53
2023-05-13T21:21:28.684Z,96218.25
2023-05-13T21:24:02.772Z,96221.91
2023-05-13T21:26:35.731Z,96224.06
2023-05-13T21:29:08.432Z,96223.91
2023-05-13T21:31:41.171Z,96225.59
2023-05-13T21:34:14.137Z,96219.69
2023-05-13T21:36:46.816Z,96226.44
2023-05-13T21:39:20.953Z,96220.53
2023-05-13T21:41:54.006Z,96217.00
2023-05-13T21:44:26.767Z,96216.91
2023-05-13T21:46:59.471Z,96220.28
2023-05-13T21:49:32.221Z,96225.97
2023-05-13T21:52:04.994Z,96223.63
2023-05-13T21:54:39.417Z,96219.38
2023-05-13T21:57:12.139Z,96227.78
2023-05-13T21:59:45.279Z,96215.47
2023-05-13T22:02:18.229Z,96215.06
2023-05-13T22:04:51.162Z,96211.16
2023-05-13T22:07:24.271Z,96213.72
2023-05-13T22:09:58.484Z,96210.97
2023-05-13T22:12:31.383Z,96215.44
2023-05-13T22:15:04.502Z,96208.44
2023-05-13T22:17:37.315Z,96211.78
2023-05-13T22:20:10.811Z,96211.59
2023-05-13T22:22:43.509Z,96206.50
2023-05-13T22:25:17.763Z,96203.22
2023-05-13T22:27:52.266Z,96212.63
2023-05-13T22:30:25.201Z,96213.63
2023-05-13T22:32:58.176Z,96206.94
2023-05-13T22:35:32.148Z,96203.75
2023-05-13T22:38:05.210Z,96197.47
2023-05-13T22:40:39.490Z,96206.22
2023-05-13T22:43:12.237Z,96203.31
2023-05-13T22:45:45.040Z,96207.78
2023-05-13T22:48:18.086Z,96211.13
2023-05-13T22:50:50.960Z,96199.88
2023-05-13T22:53:24.450Z,96207.47
2023-05-13T22:55:58.731Z,96205.81
2023-05-13T22:58:31.408Z,96216.06
2023-05-13T23:01:04.215Z,96216.41
2023-05-13T23:03:37.016Z,96207.13
2023-05-13T23:06:10.609Z,96207.13
2023-05-13T23:08:43.279Z,96205.56
2023-05-13T23:11:17.416Z,96199.56
2023-05-13T23:13:50.078Z,96201.91
2023-05-13T23:16:22.879Z,96203.47
2023-05-13T23:18:55.882Z,96201.22
2023-05-13T23:21:28.628Z,96197.09
2023-05-13T23:24:01.374Z,96192.50
2023-05-13T23:26:35.523Z,96181.47
2023-05-13T23:29:08.185Z,96191.50
2023-05-13T23:31:41.398Z,96186.50
2023-05-13T23:34:14.178Z,96187.28
2023-05-13T23:36:46.989Z,96184.91
2023-05-13T23:39:19.744Z,96180.69
2023-05-13T23:41:53.828Z,96174.44
2023-05-13T23:44:26.948Z,96172.88
2023-05-13T23:46:59.715Z,96175.44
2023-05-13T23:49:32.425Z,96177.69
2023-05-13T23:52:05.553Z,96167.22
2023-05-13T23:54:38.290Z,96162.50
2023-05-13T23:57:12.472Z,96154.41
2023-05-13T23:59:45.256Z,96163.41
